Date,TemperatureHighF,TemperatureAvgF,TemperatureLowF,DewpointHighF,DewpointAvgF,DewpointLowF,HumidityHigh,HumidityAvg,HumidityLow,PressureMaxIn,PressureMinIn,WindSpeedMaxMPH,WindSpeedAvgMPH,GustSpeedMaxMPH,PrecipitationSumIn
2013-2-10,61.1,44.3,34.0,46.3,35.2,27.2,100,75,29,30.22,29.95,1,0,3,0.20
2013-2-11,57.1,49.4,43.7,53.5,43.4,32.3,100,82,53,30.09,29.93,2,0,11,0.01
2013-2-12,42.7,38.9,35.9,32.5,31.6,30.8,84,75,66,30.12,30.09,0,0,0,0.02
2013-2-15,56.8,40.5,30.9,39.6,34.4,29.7,99,81,43,30.11,29.96,2,0,13,0.06
2013-2-16,37.2,31.2,26.6,23.5,17.9,9.3,84,60,31,30.10,29.99,2,1,10,0.00
2013-2-17,41.4,30.0,21.8,15.5,11.8,6.7,68,48,24,30.28,30.15,1,0,11,0.00
2013-2-18,58.0,39.8,22.8,31.2,23.8,15.1,91,56,32,30.32,29.94,1,0,11,0.00
2013-2-19,52.4,44.0,32.0,42.6,29.2,13.9,100,61,24,30.18,29.89,4,1,19,0.16
2013-2-20,42.2,33.8,26.3,19.4,14.8,6.6,69,48,23,30.23,30.16,1,0,7,0.00
2013-2-21,51.8,37.3,23.2,38.5,22.6,16.7,97,61,27,30.25,29.99,1,0,4,0.29
2013-2-22,40.8,39.9,38.7,40.8,39.8,38.2,100,100,97,30.09,29.95,0,0,2,0.10
2013-2-27,49.7,42.1,39.0,38.1,33.6,31.5,90,72,52,29.83,29.66,2,1,14,0.03
2013-2-28,39.2,36.7,33.0,33.7,28.2,24.0,93,72,57,29.99,29.79,2,0,14,0.02
2013-3-1,40.2,36.0,34.2,33.6,31.5,27.9,96,84,74,29.98,29.92,0,0,4,0.01
2013-3-2,37.1,33.5,29.2,33.7,29.0,21.4,100,84,65,30.06,29.92,1,0,7,0.01
2013-3-3,33.7,29.7,24.9,23.0,17.9,13.7,82,62,45,30.12,30.04,1,0,9,0.04
2013-3-4,52.4,36.4,21.0,29.0,19.0,4.9,87,55,23,30.20,29.99,1,0,4,0.01
2013-3-5,47.8,39.7,34.0,47.8,36.6,25.9,100,89,64,30.00,29.59,6,0,17,1.00
2013-3-6,34.2,31.4,28.6,30.5,28.6,23.8,98,89,76,30.27,29.82,2,0,17,0.08
2013-3-7,38.2,34.4,31.2,30.7,28.6,27.3,96,80,65,30.35,30.23,0,0,2,0.05
2013-3-8,52.7,37.9,26.3,28.5,26.4,23.8,95,67,34,30.41,30.28,1,0,1,0.00
2013-3-9,65.9,44.4,27.5,39.2,29.7,24.0,96,62,22,30.31,30.14,1,0,3,0.00
2013-3-10,71.7,54.1,39.2,41.3,35.6,30.3,89,55,23,30.14,29.94,1,0,5,0.00
2013-3-11,65.4,56.5,47.0,53.3,45.6,35.9,98,70,42,29.94,29.70,3,0,10,0.57
2013-3-12,53.4,43.6,37.7,44.8,35.9,31.4,97,76,46,30.07,29.82,2,0,9,0.05
2013-3-13,42.1,36.4,32.3,32.8,30.5,24.6,93,80,51,30.14,30.05,2,0,10,0.00
2013-3-14,45.7,35.8,25.6,25.3,16.9,12.2,72,48,28,30.40,30.23,1,0,6,0.00
2013-3-15,69.0,50.3,31.2,42.9,33.1,22.0,87,54,33,30.24,29.84,3,1,6,0.00
2013-3-16,75.3,66.4,58.8,47.6,44.0,40.7,55,45,34,29.84,29.71,5,2,9,0.00
2013-3-17,67.0,61.6,57.1,50.4,46.4,44.0,75,58,47,29.91,29.81,1,0,9,0.00
2013-3-18,66.0,51.7,46.1,53.9,48.9,44.7,100,91,49,29.86,29.73,1,0,9,0.83
2013-3-19,59.2,48.3,36.7,51.6,28.9,11.1,100,54,16,30.11,29.82,3,1,13,0.18
2013-3-20,56.1,42.2,29.9,34.2,20.4,7.5,84,47,19,30.13,29.85,2,1,17,0.19
2013-3-21,42.2,32.0,24.0,14.3,11.5,7.9,64,44,26,30.01,29.93,2,1,9,0.00
2013-3-22,46.1,35.5,23.5,30.1,18.7,12.2,81,53,28,30.07,29.98,1,0,4,0.00
2013-3-23,53.7,44.4,37.9,41.6,36.5,27.7,94,74,60,30.01,29.71,1,0,2,0.03
2013-3-24,55.2,47.9,41.5,51.7,46.0,34.2,100,93,71,29.76,29.33,4,0,6,0.64
2013-3-25,41.5,35.7,31.8,34.5,29.4,26.3,90,78,63,29.88,29.55,4,2,12,0.08
2013-3-26,39.0,34.1,30.6,31.7,28.8,26.6,93,81,63,30.28,30.01,1,0,10,0.08
2013-3-27,50.4,38.1,30.9,29.2,25.3,21.3,87,63,34,30.33,30.24,1,0,9,0.01
2013-3-28,57.4,40.5,26.6,28.1,22.8,15.6,94,56,20,30.34,30.23,2,0,4,0.00
2013-3-29,49.4,38.7,28.9,41.8,33.2,24.7,100,82,44,30.33,30.22,1,0,4,0.29
2013-3-30,60.3,48.8,41.4,48.7,43.9,41.4,100,85,56,30.22,29.99,1,0,2,0.11
2013-3-31,58.3,51.4,49.3,53.7,50.6,48.6,100,97,81,29.98,29.84,2,0,4,0.31
2013-4-1,62.2,51.9,43.8,52.2,42.9,31.1,100,75,42,30.05,29.86,2,0,11,0.18
2013-4-2,55.2,45.5,33.7,33.3,24.1,17.1,78,46,23,30.20,30.05,1,0,10,0.04
2013-4-3,57.2,46.7,32.4,28.4,22.5,18.1,81,41,23,30.26,30.13,2,0,10,0.04
2013-4-4,46.7,42.0,39.8,42.3,36.5,23.0,98,84,39,30.13,29.97,0,0,3,0.13
2013-4-5,40.1,39.9,39.7,39.3,38.9,38.4,97,96,95,29.98,29.95,0,0,0,0.01
2013-4-10,86.2,69.2,53.7,59.1,55.8,52.0,99,67,36,30.05,29.83,2,0,13,0.00
2013-4-11,83.9,69.2,57.7,62.2,55.0,45.7,99,66,27,29.85,29.59,1,0,13,0.01
2013-4-12,65.5,58.9,50.1,61.2,47.5,37.1,100,69,40,29.92,29.51,2,1,12,0.00
2013-4-13,71.7,56.7,43.1,42.3,38.6,32.8,93,56,27,30.02,29.91,1,0,10,0.00
2013-4-14,50.1,48.7,46.1,42.7,41.7,40.3,82,77,73,30.00,29.99,0,0,0,0.01
2013-4-16,85.0,71.4,53.5,60.9,57.2,53.2,100,65,41,30.18,30.07,2,0,4,0.00
2013-4-19,75.0,59.8,46.3,63.8,50.6,34.4,98,74,48,30.07,29.59,1,0,13,0.00
2013-4-20,63.3,48.6,35.2,38.5,32.3,26.0,95,58,27,30.27,30.08,1,0,5,0.00
2013-4-21,69.8,52.6,38.7,41.8,36.8,31.6,97,61,26,30.36,30.22,0,0,5,0.00
2013-4-22,72.2,56.7,42.7,45.3,40.4,36.6,98,59,28,30.31,30.10,1,0,7,0.00
2013-4-23,76.2,58.3,44.0,52.9,45.3,39.9,97,66,33,30.19,29.99,0,0,5,0.01
2013-4-24,75.2,58.7,45.9,62.2,51.7,43.1,96,80,45,30.20,29.92,1,0,9,0.00
2013-4-25,68.2,52.2,41.2,43.2,37.8,28.4,94,63,24,30.33,30.20,1,0,2,0.00
2013-4-26,67.7,53.7,38.7,49.3,39.7,34.3,95,64,29,30.40,30.26,1,0,2,0.00
2013-4-27,56.2,54.2,51.3,55.9,52.5,47.4,100,94,78,30.30,30.08,0,0,0,0.00
2013-4-28,56.9,54.9,52.2,56.9,54.9,52.2,100,100,99,30.12,29.86,1,0,2,0.00
2013-4-29,75.3,61.2,52.4,59.1,55.1,52.4,100,83,46,30.00,29.89,1,0,2,0.02
2013-4-30,82.3,65.9,53.2,59.4,55.8,50.0,100,74,36,30.04,29.92,0,0,1,0.01
2013-5-1,78.0,66.4,56.5,57.5,54.5,49.3,98,68,45,30.15,30.03,0,0,3,0.01
2013-5-2,79.1,66.2,55.0,59.4,53.8,49.1,94,66,41,30.14,30.06,0,0,2,0.00
2013-5-3,78.4,63.8,55.9,55.1,51.0,45.7,90,65,38,30.09,29.93,1,0,3,0.00
2013-5-4,63.1,57.4,53.2,53.7,47.8,35.0,100,73,41,29.93,29.84,1,0,4,0.01
2013-5-5,60.1,55.1,52.2,57.2,53.1,49.5,100,93,80,29.86,29.72,1,0,2,0.00
2013-5-6,64.9,54.2,48.2,52.7,49.5,47.4,100,85,60,29.89,29.75,1,0,2,0.00
2013-5-7,69.7,57.7,49.1,55.5,50.5,48.2,99,79,51,29.94,29.84,0,0,2,0.00
2013-5-8,71.4,60.9,55.2,63.4,57.7,55.2,100,90,64,30.03,29.89,0,0,1,0.00
2013-5-9,80.2,64.8,53.0,63.8,57.4,53.0,100,80,42,30.08,29.98,0,0,2,0.00
2013-5-10,77.1,65.4,56.5,62.3,58.5,54.3,98,79,50,30.04,29.89,1,0,7,0.00
2013-5-11,71.4,64.3,57.2,66.4,59.2,51.6,97,84,70,29.94,29.82,0,0,1,0.00
2013-5-12,67.2,56.4,46.4,52.7,41.2,28.0,96,61,25,30.11,29.94,1,0,4,0.00
2013-5-13,68.2,52.8,39.4,43.9,36.9,30.0,95,61,26,30.22,30.11,1,0,4,0.00
2013-5-14,80.6,61.8,43.2,53.7,44.9,36.1,85,57,34,30.21,29.99,1,0,4,0.00
2013-5-15,71.2,70.1,68.7,54.7,53.7,53.2,60,56,54,30.02,29.99,0,0,2,0.00
2013-5-16,83.3,69.7,60.0,60.8,56.9,53.0,89,66,36,30.02,29.92,0,0,9,0.00
2013-5-17,81.0,69.0,58.9,66.2,61.3,57.1,95,78,50,30.05,29.97,0,0,3,0.00
2013-5-18,72.4,66.9,63.6,68.1,65.7,63.6,100,96,82,30.04,29.98,0,0,2,0.00
2013-5-19,77.5,68.6,64.1,70.7,66.2,63.0,100,93,74,30.02,29.95,0,0,3,0.00
2013-5-20,84.2,70.9,63.3,69.7,65.3,63.0,100,85,54,30.09,29.95,0,0,3,0.00
2013-5-21,90.0,73.8,63.6,69.9,66.8,63.6,100,82,46,30.02,29.85,0,0,0,0.00
2013-5-22,85.4,68.8,61.4,70.5,64.8,61.4,100,89,52,29.92,29.77,0,0,10,0.00
2013-5-23,80.8,69.2,63.1,69.1,61.9,54.0,100,80,48,29.97,29.83,1,0,10,0.00
2013-5-24,72.7,62.9,53.1,55.2,48.4,37.1,84,62,28,30.24,29.96,1,0,10,0.00
2013-5-25,77.5,60.0,45.3,52.6,46.0,35.4,99,66,25,30.33,30.14,0,0,3,0.00
2013-5-26,78.2,63.5,53.4,56.7,51.8,42.0,96,69,31,30.27,30.15,1,0,1,0.00
2013-5-27,86.2,69.4,54.0,61.7,57.1,52.1,100,68,39,30.19,30.05,1,0,3,0.00
2013-5-28,88.3,73.6,60.8,65.6,61.2,57.4,97,68,40,30.15,30.03,0,0,4,0.00
2013-5-29,88.3,73.5,59.7,66.6,61.7,57.3,95,70,41,30.16,30.04,0,0,2,0.00
2013-5-30,89.2,74.2,60.6,67.6,61.0,56.2,97,67,36,30.19,30.03,0,0,1,0.00
2013-5-31,91.3,73.5,62.6,66.9,62.1,57.1,97,71,35,30.13,30.00,0,0,0,0.00
2013-6-1,91.7,78.1,67.0,68.0,62.7,57.7,95,63,34,30.01,29.88,0,0,4,0.00
2013-6-2,75.7,68.5,65.7,70.2,67.8,65.7,100,98,79,29.96,29.84,0,0,4,0.00
2013-6-3,81.7,70.3,64.1,68.2,64.6,60.9,100,84,52,29.95,29.85,0,0,1,0.00
2013-6-4,85.8,71.8,60.3,65.7,62.5,57.7,100,76,43,30.02,29.94,0,0,1,0.00
2013-6-5,87.9,72.1,63.1,71.2,66.0,62.4,100,83,52,30.00,29.86,0,0,1,0.00
2013-6-6,81.7,70.7,64.6,71.5,67.3,64.6,100,90,65,29.86,29.71,0,0,3,0.00
2013-6-7,84.0,72.4,66.8,70.7,67.8,65.1,100,87,54,29.81,29.65,0,0,7,0.00
2013-6-8,84.0,71.6,62.0,67.2,64.8,60.5,100,82,51,30.03,29.81,0,0,5,0.00
2013-6-9,85.2,71.5,64.4,72.2,67.0,62.5,100,87,55,30.07,29.93,0,0,2,0.51
2013-6-10,82.7,72.3,67.7,71.2,66.6,59.9,100,85,47,29.93,29.83,1,0,4,0.34
2013-6-11,87.7,74.3,65.5,69.5,66.6,62.5,100,80,45,30.00,29.91,0,0,4,0.00
2013-6-12,71.9,70.6,69.5,66.8,66.2,65.8,89,86,81,29.96,29.94,0,0,1,0.00
2013-6-15,87.1,71.9,58.9,66.8,61.7,57.8,100,74,41,30.10,30.00,0,0,6,0.00
2013-6-16,87.7,75.0,63.8,70.8,65.1,62.0,97,74,45,30.07,29.95,0,0,7,0.42
2013-6-17,83.3,73.0,68.5,72.4,70.0,68.2,100,91,63,30.01,29.88,0,0,2,0.20
2013-6-18,72.6,69.9,66.2,72.6,68.8,65.9,100,96,89,29.93,29.81,0,0,6,1.02
2013-6-19,85.4,70.7,63.1,69.3,65.3,62.3,100,86,47,30.01,29.91,0,0,3,0.00
2013-6-20,86.0,73.7,63.6,70.2,65.8,63.3,100,79,49,30.15,30.03,0,0,4,0.00
2013-6-21,70.3,68.1,66.3,67.2,66.2,65.1,97,94,89,30.17,30.12,0,0,0,0.04
2013-6-22,87.5,73.1,63.0,70.1,65.0,60.9,100,79,41,30.21,30.04,0,0,1,0.00
2013-6-23,87.5,73.4,63.0,71.1,65.1,60.5,100,77,44,30.17,30.05,0,0,1,0.00
2013-6-24,89.8,76.8,67.2,72.8,68.5,65.7,100,78,46,30.17,30.02,0,0,4,0.01
2013-6-25,83.7,75.6,68.3,73.1,69.7,67.2,98,83,61,30.12,29.97,0,0,1,0.00
2013-6-26,72.6,69.5,68.3,71.4,68.3,67.1,97,96,95,29.99,29.95,0,0,0,0.00
2013-8-4,86.2,76.2,69.5,70.5,66.9,59.2,92,75,42,30.03,29.95,0,0,4,0.00
2013-8-5,89.4,73.7,63.1,67.6,63.1,56.4,100,73,34,30.03,29.93,0,0,5,0.00
2013-8-6,69.2,69.2,69.2,64.5,64.5,64.5,85,85,85,29.94,29.94,0,0,0,0.00
2013-8-8,82.5,82.4,82.1,74.9,74.3,73.4,78,77,75,29.94,29.94,0,0,1,0.00
2013-8-10,91.5,85.1,76.6,74.2,72.1,69.3,80,65,56,30.06,29.99,1,0,2,0.00
2013-8-27,65.1,64.8,64.6,63.1,62.6,62.2,94,93,92,30.10,30.08,0,0,0,0.00
2013-8-28,90.0,76.4,67.7,71.6,68.9,65.9,98,80,50,30.02,29.93,0,0,4,0.00
2013-8-29,91.3,78.0,71.4,75.7,71.6,70.0,98,82,54,29.97,29.87,0,0,4,0.02
2013-8-30,93.5,78.1,68.2,73.3,70.3,66.3,100,80,41,29.97,29.85,0,0,5,0.00
2013-8-31,93.1,78.4,69.8,75.1,71.3,68.5,100,81,47,29.92,29.78,0,0,6,0.31
2013-9-1,88.5,74.6,68.7,74.7,70.3,68.5,100,88,58,29.86,29.76,0,0,12,0.01
2013-9-2,86.2,75.3,67.8,71.7,69.9,67.8,100,85,60,29.90,29.80,0,0,4,0.00
2013-9-3,86.4,73.2,65.2,71.4,67.7,64.5,100,85,56,29.98,29.82,0,0,2,2.45
2013-9-4,87.5,72.5,64.1,68.5,65.6,63.1,100,82,45,30.08,29.97,0,0,2,0.00
2013-9-5,86.0,72.1,63.4,67.5,64.7,56.7,100,81,38,30.13,30.06,0,0,1,0.00
2013-9-6,87.5,71.4,60.9,65.6,63.3,58.0,100,79,37,30.14,30.03,0,0,4,0.00
2013-9-7,86.4,72.5,62.6,68.2,65.3,62.1,100,81,48,30.09,29.96,0,0,4,0.00
2013-9-8,85.2,73.8,65.9,71.1,67.6,64.0,100,83,56,29.98,29.90,0,0,5,0.00
2013-9-9,88.3,74.6,65.7,74.0,68.3,64.5,100,83,52,30.07,29.97,0,0,3,0.00
2013-9-10,90.2,76.5,66.2,72.0,68.2,64.0,100,78,43,30.18,30.07,0,0,1,0.00
2013-9-11,88.9,76.8,68.5,71.7,69.0,66.5,99,79,49,30.19,30.04,0,0,1,0.00
2013-9-12,71.5,70.1,69.0,69.4,68.7,68.1,97,95,93,30.05,30.02,0,0,0,0.00
2013-9-13,79.8,68.6,59.7,67.2,60.4,50.9,100,78,37,29.95,29.85,0,0,5,0.00
2013-9-14,71.2,59.6,54.0,55.0,52.2,50.3,91,77,52,30.04,29.94,0,0,3,0.00
2013-9-15,83.7,67.0,56.5,65.8,60.1,56.0,100,82,44,30.15,30.05,0,0,3,0.00
2013-9-16,81.9,68.8,59.8,66.1,61.2,58.9,100,79,46,30.14,30.07,0,0,1,0.00
2013-9-17,80.0,68.8,61.9,67.4,62.1,58.1,92,80,59,30.18,30.09,0,0,0,0.00
2013-9-18,71.2,65.8,61.9,65.3,62.4,59.6,98,89,70,30.19,30.11,0,0,0,0.01
2013-9-19,83.1,70.0,61.9,68.0,64.0,61.9,100,83,51,30.16,30.02,0,0,1,0.00
2013-9-20,84.2,71.3,61.7,67.2,64.6,61.7,100,82,49,30.05,29.84,0,0,1,0.00
2013-9-21,68.7,65.5,61.1,68.7,65.2,61.1,100,99,93,29.85,29.71,0,0,1,0.96
2013-9-22,76.0,63.6,56.2,61.5,57.8,52.7,100,84,45,29.90,29.79,0,0,2,0.00
2013-9-23,79.5,63.9,52.8,63.5,58.1,52.5,100,84,49,30.00,29.90,0,0,1,0.00
2013-9-24,81.5,67.5,58.8,65.6,61.8,58.0,100,84,49,30.03,29.86,0,0,2,0.01
2013-9-25,68.8,65.9,64.1,67.7,65.4,63.9,100,99,92,29.86,29.79,0,0,0,0.30
2013-9-26,78.7,67.9,61.7,65.7,63.3,60.0,100,87,54,30.00,29.84,0,0,1,0.00
2013-9-27,80.4,65.6,57.5,61.9,58.9,52.9,100,82,40,30.13,30.01,0,0,1,0.00
2013-9-28,77.6,64.3,56.2,62.3,58.7,56.0,100,84,51,30.21,30.07,0,0,1,0.00
2013-9-29,70.7,63.0,57.7,61.4,59.5,56.9,100,89,68,30.12,29.99,0,0,0,0.00
2013-9-30,77.5,64.8,55.3,62.9,59.1,55.3,100,84,51,30.06,29.96,0,0,2,0.00
2013-10-1,79.5,66.9,57.5,63.5,59.7,56.6,100,80,50,30.13,30.02,1,0,2,0.00
2013-10-2,81.5,68.0,58.9,65.3,61.9,57.5,100,83,49,30.16,30.04,0,0,0,0.00
2013-10-3,82.5,69.3,61.2,66.4,63.5,60.1,100,83,54,30.12,30.02,0,0,1,0.00
2013-10-4,83.9,70.5,60.6,68.4,62.8,59.6,100,80,46,30.15,30.04,0,0,1,0.00
2013-10-5,86.2,70.1,60.6,66.8,63.1,60.5,100,82,49,30.12,29.96,1,0,1,0.00
2013-10-19,64.2,55.1,48.7,53.1,49.9,42.8,100,84,60,30.02,29.88,2,0,12,0.00
2013-10-20,65.2,51.0,42.2,43.8,40.9,32.3,98,72,32,30.09,30.01,0,0,4,0.00
2013-10-21,68.5,52.6,39.7,51.1,45.5,39.5,100,80,50,30.11,29.97,0,0,4,0.00
2013-10-22,67.2,56.8,51.5,52.4,50.4,48.3,97,81,51,29.99,29.82,1,0,5,0.00
2013-10-23,53.0,47.9,36.1,49.5,39.6,31.9,96,74,56,30.11,29.76,1,0,16,0.00
2013-10-24,53.8,40.1,35.2,37.4,34.9,33.3,95,83,51,30.18,30.10,1,0,6,0.00
2013-10-25,49.4,40.6,34.2,30.8,28.0,23.8,80,63,39,30.37,30.34,0,0,6,0.00
2013-10-26,58.9,43.1,27.7,34.9,29.0,23.7,100,64,27,30.36,30.09,2,0,4,0.00
2013-10-27,62.5,53.3,50.7,43.3,38.3,31.7,73,57,42,30.11,30.06,1,0,2,0.00
2013-10-28,66.0,57.8,50.4,56.5,52.2,48.2,100,83,58,30.24,30.09,1,0,9,0.01
2013-10-29,71.2,60.6,53.0,55.7,52.0,45.5,100,76,40,30.30,30.18,0,0,4,0.00
2013-10-30,78.2,64.3,56.5,57.1,54.1,51.9,91,72,41,30.24,30.09,1,0,10,0.00
2013-10-31,74.3,65.6,55.9,59.4,55.3,52.3,95,72,48,30.09,29.61,2,0,13,0.00
2013-11-1,74.5,64.7,51.9,63.1,53.4,46.1,97,69,40,29.79,29.59,2,1,17,0.04
2013-11-2,59.7,52.7,45.7,46.8,42.6,36.3,94,70,45,30.07,29.76,2,0,4,0.01
2013-11-3,59.1,47.6,39.0,43.2,37.8,33.4,100,72,39,30.30,30.06,1,0,4,0.00
2013-11-4,64.6,47.8,34.2,40.7,36.2,33.2,100,69,33,30.41,30.30,0,0,2,0.00
2013-11-5,66.7,51.9,41.4,40.3,37.5,32.7,90,62,30,30.43,30.30,1,0,3,0.00
2013-11-6,75.7,57.8,42.0,51.0,45.5,37.7,88,66,41,30.30,30.02,1,0,3,0.00
2013-11-7,58.2,50.5,36.7,57.3,44.7,34.5,100,82,51,30.28,29.97,2,0,4,0.00
2013-11-8,54.3,40.7,30.5,37.7,28.3,18.8,100,68,26,30.40,30.28,1,0,2,0.00
2013-11-9,54.0,41.2,29.2,37.3,32.2,27.4,98,73,41,30.33,30.21,1,0,2,0.00
2013-11-10,65.4,48.7,35.4,40.2,35.2,28.6,96,64,32,30.31,30.21,1,0,3,0.00
2013-11-11,64.1,45.3,30.5,38.5,30.2,23.2,93,61,23,30.32,30.14,1,0,1,0.00
2013-11-12,50.3,39.5,28.7,42.5,30.0,15.9,90,69,53,30.57,30.09,2,0,5,0.00
2013-11-13,42.2,30.3,21.8,23.2,18.3,15.5,89,63,36,30.66,30.48,1,0,4,0.00
2013-11-14,54.1,35.9,21.7,30.2,23.4,19.8,99,66,26,30.50,30.29,1,0,3,0.00
2013-11-15,45.4,37.6,29.6,41.2,32.0,24.2,100,81,52,30.30,30.16,0,0,1,0.00
2013-11-16,67.0,50.6,39.7,53.2,47.0,39.7,100,89,59,30.22,30.06,1,0,1,0.00
2013-11-17,66.3,55.4,46.6,65.2,54.0,46.6,100,96,65,30.07,29.76,1,0,3,0.22
2013-11-18,67.3,56.8,44.4,64.7,44.1,28.1,100,68,28,30.13,29.77,2,0,6,0.19
2013-11-19,53.0,42.3,31.5,32.5,29.0,23.5,94,62,32,30.22,30.12,1,0,3,0.00
2013-11-20,57.5,40.4,29.7,34.5,29.8,24.6,96,69,28,30.31,30.16,1,0,2,0.00
2013-11-21,67.3,48.7,32.7,47.2,39.3,30.6,94,72,46,30.37,30.22,0,0,4,0.00
2013-11-22,58.0,52.9,46.7,55.9,50.4,43.5,100,91,81,30.26,30.15,0,0,3,0.23
2013-11-23,53.0,43.8,31.1,53.0,38.8,19.6,100,84,58,30.40,30.16,0,0,5,0.04
2013-11-24,36.2,28.7,23.8,19.1,13.0,8.2,70,53,34,30.59,30.40,1,0,4,0.00
2013-11-25,35.8,30.0,23.5,30.9,18.0,10.0,93,62,49,30.47,30.20,0,0,3,0.04
2013-11-26,42.8,37.3,32.6,42.8,37.1,30.8,100,99,93,30.19,29.73,0,0,2,1.88
2013-11-27,37.4,31.0,26.6,37.4,28.7,21.3,100,91,77,30.30,29.79,1,0,2,0.11
2013-11-28,39.0,28.6,19.6,27.6,22.1,16.9,96,78,55,30.50,30.29,0,0,2,0.02
2013-11-29,48.7,33.3,24.3,33.8,26.5,23.4,100,79,40,30.59,30.48,1,0,1,0.01
2013-11-30,52.2,35.2,24.9,33.1,28.6,23.9,100,80,43,30.54,30.30,1,0,1,0.00
2013-12-1,56.2,39.8,26.3,37.5,31.8,25.6,100,76,42,30.30,29.98,1,0,2,0.00
2013-12-2,51.3,45.5,42.0,41.6,39.6,36.6,93,80,61,29.98,29.79,0,0,1,0.01
2013-12-3,58.0,48.7,43.5,50.8,46.8,41.2,100,94,72,29.86,29.79,0,0,1,0.10
2013-12-4,70.2,54.4,44.0,57.0,49.8,44.0,100,86,57,29.94,29.82,0,0,1,0.01
2013-12-5,72.4,60.3,50.4,63.8,56.7,49.8,100,89,63,29.99,29.86,1,0,2,0.01
2013-12-6,60.1,57.5,54.1,59.8,56.9,53.3,100,98,96,29.88,29.83,1,0,2,0.00
2013-12-16,52.7,37.1,26.3,33.9,29.7,25.1,98,77,44,30.23,30.07,1,0,7,0.00
2013-12-17,55.9,45.8,33.0,35.6,31.0,21.8,89,58,44,30.20,29.95,2,1,16,0.00
2013-12-18,46.7,35.2,25.7,24.7,20.2,11.7,87,58,27,30.33,30.19,1,0,7,0.00
2013-12-19,53.7,36.6,24.1,30.2,24.4,18.8,94,66,28,30.32,30.13,0,0,3,0.00
2013-12-20,60.9,44.1,30.0,41.8,34.8,27.7,96,73,41,30.17,30.02,0,0,4,0.00
2013-12-21,74.6,59.3,43.8,59.3,48.9,38.7,84,70,56,30.00,29.75,3,0,15,0.00
2013-12-22,73.6,59.6,54.7,60.2,56.7,54.7,100,92,58,30.02,29.74,2,0,17,1.25
2013-12-23,54.7,43.8,34.3,54.7,41.3,28.2,100,91,78,30.33,29.97,1,0,4,0.08
2013-12-24,34.3,31.2,23.7,28.4,21.1,12.7,80,67,43,30.47,30.32,2,0,3,0.00
2013-12-25,41.0,28.4,18.5,24.6,19.8,15.1,92,72,46,30.48,30.32,1,0,1,0.00
2013-12-26,47.8,32.9,23.5,29.1,25.4,22.3,98,77,44,30.40,30.30,1,0,3,0.00
2013-12-27,50.1,33.8,24.1,31.9,25.7,22.8,99,76,34,30.48,30.35,1,0,1,0.00
2013-12-28,40.8,33.2,25.3,38.5,29.8,23.6,100,88,62,30.40,29.97,0,0,0,0.44
2013-12-29,48.5,43.1,38.7,46.3,41.6,38.7,100,95,78,30.02,29.81,1,0,5,0.38
2013-12-30,42.1,37.9,34.6,41.5,34.7,30.3,100,88,81,30.21,30.00,1,0,2,0.01
2013-12-31,41.5,32.8,27.2,32.0,26.0,21.1,98,78,45,30.43,30.20,1,0,2,0.00
2014-1-1,46.1,31.6,22.8,29.8,24.8,21.3,98,78,40,30.36,30.09,0,0,1,0.00
2014-1-2,38.8,31.8,21.5,38.8,29.6,12.9,100,92,69,30.15,29.74,3,0,7,0.08